Terminal Aerodrome Forecast
Issued by NWS Medford, OR

Home | Current Version | Previous Version | Text Only | Print | Product List | Glossary On
Versions: 1 2 3 4 5 6 7 8 9 10 11 12 13 14 15 16 17 18 19 20
521
FTUS46 KMFR 060738 AAA
TAFMFR
TAF AMD
KMFR 060738Z 0608/0706 VRB02KT P6SM VCSH FEW035 OVC060
     FM061000 VRB02KT 4SM BR SCT006 BKN030 OVC040
     FM061700 VRB02KT P6SM FEW040 FEW100 SCT250=

USA.gov is the U.S. government's official web portal to all federal, state and local government web resources and services.